メインページ
METAR-TAF:

METAR-TAF

空港 :

キャンベルリバー, ブリティッシュコロンビア州, カナダ

緯度: 49-57N, 経度: 125-16W, 海抜: 106m

現時点の気象観測

当レポートは5時間47分前の04:00(UTC)に作成
西/北西の風 3kt
気温 17°C
湿度 88%
気圧 1018 hPa
視程: 48.3km
高度3000ftの雲はほとんどない
高度6000ftの雲はほとんどない
高度8000ftの雲は散在している
高度12000ftの千切れ雲あり

METAR: CYBL 030400Z 29003KT 30SM FEW030 FEW060 SCT080 BKN120 17/15 A3006 RMK SC1SC2AC2AC2 SC TR LAST STFD OBS/NEXT 031300 UTC SLP182 DENSITY ALT 500FT

時間: 02:47 (09:47 UTC)

予報

当レポートは9時間9分前の00:38(UTC)に作成
予報は03日の 01時(UTC)から 03日の 04時(UTC)まで有効
東/南東の風 10kt
視程: 10km
高度2000ftの雲は散在している
高度7000ftの千切れ雲あり
03日の 01時(UTC)から 03日の 04時(UTC)まで一時的に
視程: 10km
高度2000ftの千切れ雲あり
高度7000ftの曇り
小雨

TAF: CYBL 030038Z 0301/0304 11010KT P6SM SCT020 BKN070 TEMPO 0301/0304 P6SM -RA BKN020 OVC070 RMK NXT FCST WILL BE ISSUED AT 031445Z

4,000以上の空港の気象観測と天気予報(METAR報とTAF報)

利用可能な観測所は地図上に黄色い丸と赤い丸で示す。

丸の上にカーソルを重ねると観測所名を参照できる。

次にクリックすると気象観測と天気予報を参照できる。

マップの切り替え:黒色「×」印の緑ボタンをクリックして拡大、「-」印の緑ボタンをクリックして縮小、緑色の三角印をクリックして隣りの地図に切り替え


METAR-TAF: